Time;durP1;ratioP1;P1;durP2;ratioP2;P2;SDS_P1;SDS_P2;PMS_P1;PMS_P2;Temp;Humidity;BMP_temperature;BMP_pressure;BME280_temperature;BME280_humidity;BME280_pressure;Samples;Min_cycle;Max_cycle;Signal;HPM_P1;HPM_P2
2023/09/01 06:01:36;;;;;;;9.13;3.20;;;;;;;;;;5347014;23;20609;-78
2023/09/01 06:04:05;;;;;;;10.20;4.63;;;;;;;;;;4909656;29;20454;-78
2023/09/01 06:06:31;;;;;;;11.63;4.30;;;;;;;;;;4908770;29;20467;-77
2023/09/01 06:08:58;;;;;;;8.27;4.17;;;;;;;;;;4907194;29;20420;-78
2023/09/01 06:11:24;;;;;;;17.03;4.20;;;;;;;;;;4906941;29;20494;-77
2023/09/01 06:13:50;;;;;;;14.23;4.60;;;;;;;;;;4906361;29;20415;-78
2023/09/01 06:16:16;;;;;;;15.17;4.73;;;;;;;;;;4898444;29;20873;-76
2023/09/01 06:18:42;;;;;;;14.53;5.80;;;;;;;;;;4878080;29;20500;-76
2023/09/01 06:21:10;;;;;;;21.73;5.40;;;;;;;;;;4879829;29;20503;-76
2023/09/01 06:23:40;;;;;;;16.83;5.13;;;;;;;;;;4879688;29;20431;-77
2023/09/01 06:26:06;;;;;;;8.60;4.63;;;;;;;;;;4909920;29;20502;-76
2023/09/01 06:28:33;;;;;;;16.87;5.50;;;;;;;;;;4915087;29;20484;-76
2023/09/01 06:30:59;;;;;;;7.60;5.07;;;;;;;;;;4916875;29;20836;-76
2023/09/01 06:33:25;;;;;;;15.43;5.07;;;;;;;;;;4916625;29;20416;-76
2023/09/01 06:35:51;;;;;;;9.57;4.30;;;;;;;;;;4902501;29;20419;-76
2023/09/01 06:38:17;;;;;;;8.60;4.60;;;;;;;;;;4898179;29;20438;-76
2023/09/01 06:40:43;;;;;;;18.00;4.80;;;;;;;;;;4897681;29;20452;-76
2023/09/01 06:43:09;;;;;;;20.93;5.33;;;;;;;;;;4897871;29;21050;-76
2023/09/01 06:45:35;;;;;;;9.30;5.13;;;;;;;;;;4897367;29;20451;-77
2023/09/01 06:48:02;;;;;;;8.97;4.90;;;;;;;;;;4897856;29;20427;-76
2023/09/01 06:50:28;;;;;;;6.73;3.43;;;;;;;;;;4897251;29;21017;-76
2023/09/01 06:52:54;;;;;;;8.60;3.97;;;;;;;;;;4896023;29;20457;-76
2023/09/01 06:55:20;;;;;;;12.50;4.17;;;;;;;;;;4896252;29;20428;-76
2023/09/01 06:57:46;;;;;;;5.53;3.30;;;;;;;;;;4896373;29;20438;-76
2023/09/01 07:00:14;;;;;;;10.67;3.87;;;;;;;;;;4896066;29;20419;-77
2023/09/01 07:02:40;;;;;;;7.33;3.93;;;;;;;;;;4897634;29;20430;-76
2023/09/01 07:05:06;;;;;;;8.80;4.10;;;;;;;;;;4897454;29;20419;-75
2023/09/01 07:07:32;;;;;;;9.97;4.60;;;;;;;;;;4897179;29;20512;-75
2023/09/01 07:09:58;;;;;;;7.07;3.60;;;;;;;;;;4899876;29;20910;-75
2023/09/01 07:12:24;;;;;;;6.53;3.80;;;;;;;;;;4900337;29;20435;-75
2023/09/01 07:14:50;;;;;;;6.10;4.57;;;;;;;;;;4900454;29;20419;-75
2023/09/01 07:17:21;;;;;;;7.73;3.93;;;;;;;;;;4902438;29;20454;-75
2023/09/01 07:19:47;;;;;;;7.80;4.00;;;;;;;;;;4899297;29;20416;-75
2023/09/01 07:22:13;;;;;;;9.37;4.03;;;;;;;;;;4908341;29;20813;-76
2023/09/01 07:24:39;;;;;;;10.10;5.30;;;;;;;;;;4920945;29;20418;-76
2023/09/01 07:27:06;;;;;;;9.20;4.43;;;;;;;;;;4919738;29;20784;-76
2023/09/01 07:29:32;;;;;;;9.20;5.40;;;;;;;;;;4919160;29;20418;-76
2023/09/01 07:31:59;;;;;;;5.90;4.47;;;;;;;;;;4899824;29;20467;-76
2023/09/01 07:34:25;;;;;;;8.80;3.97;;;;;;;;;;4880155;29;20508;-76
2023/09/01 07:36:51;;;;;;;11.03;5.27;;;;;;;;;;4882153;29;20420;-76
2023/09/01 07:39:17;;;;;;;8.00;4.50;;;;;;;;;;4882724;29;20421;-76
2023/09/01 07:41:43;;;;;;;11.80;3.83;;;;;;;;;;4882548;29;20459;-76
2023/09/01 07:44:09;;;;;;;10.73;5.57;;;;;;;;;;4883350;29;20448;-76
2023/09/01 07:46:35;;;;;;;8.10;4.30;;;;;;;;;;4882641;29;20930;-76
2023/09/01 07:49:02;;;;;;;7.90;4.20;;;;;;;;;;4882146;29;20768;-76
2023/09/01 07:51:28;;;;;;;5.67;3.60;;;;;;;;;;4882860;29;20479;-76
2023/09/01 07:53:54;;;;;;;7.97;4.67;;;;;;;;;;4919602;29;20419;-77
2023/09/01 07:56:21;;;;;;;8.23;3.50;;;;;;;;;;4904737;29;20428;-77
2023/09/01 07:58:47;;;;;;;7.77;3.30;;;;;;;;;;4883490;29;20820;-77
2023/09/01 08:01:13;;;;;;;7.63;4.23;;;;;;;;;;4885084;29;20471;-77
2023/09/01 08:03:39;;;;;;;12.10;4.50;;;;;;;;;;4884783;29;20794;-76
2023/09/01 08:06:05;;;;;;;10.13;3.53;;;;;;;;;;4888629;29;20432;-76
2023/09/01 08:08:31;;;;;;;11.43;3.90;;;;;;;;;;4884748;29;20430;-76
2023/09/01 08:10:57;;;;;;;21.83;4.90;;;;;;;;;;4885198;29;20479;-76
2023/09/01 08:13:23;;;;;;;8.73;3.43;;;;;;;;;;4884157;29;20416;-76
2023/09/01 08:15:49;;;;;;;8.63;3.80;;;;;;;;;;4882672;29;20412;-75
2023/09/01 08:18:16;;;;;;;6.57;3.83;;;;;;;;;;4882556;29;20899;-76
2023/09/01 08:20:42;;;;;;;14.77;4.20;;;;;;;;;;4880771;29;20440;-76
2023/09/01 08:23:09;;;;;;;8.43;3.70;;;;;;;;;;4881593;29;20421;-74
2023/09/01 08:25:36;;;;;;;9.73;3.90;;;;;;;;;;4889422;29;20441;-76
2023/09/01 08:28:05;;;;;;;6.00;3.17;;;;;;;;;;4919066;29;20780;-74
2023/09/01 08:30:31;;;;;;;5.97;2.80;;;;;;;;;;4902371;29;20486;-74
2023/09/01 08:32:57;;;;;;;9.67;3.20;;;;;;;;;;4910258;29;20418;-74
2023/09/01 08:35:23;;;;;;;4.73;2.33;;;;;;;;;;4913708;29;20446;-75
2023/09/01 08:37:49;;;;;;;6.87;2.53;;;;;;;;;;4899173;29;20487;-74
2023/09/01 08:40:15;;;;;;;4.23;2.27;;;;;;;;;;4898110;29;20438;-75
2023/09/01 08:42:47;;;;;;;5.97;2.13;;;;;;;;;;4899623;29;20423;-75
2023/09/01 08:45:20;;;;;;;4.77;2.00;;;;;;;;;;4899419;29;20478;-74
2023/09/01 08:47:47;;;;;;;2.63;2.00;;;;;;;;;;4898629;29;20907;-76
2023/09/01 08:50:13;;;;;;;3.30;2.27;;;;;;;;;;4897851;29;20844;-75
2023/09/01 08:52:41;;;;;;;5.53;2.43;;;;;;;;;;4898841;29;20442;-74
2023/09/01 08:55:08;;;;;;;5.80;2.37;;;;;;;;;;4898817;29;20412;-74
2023/09/01 08:57:34;;;;;;;4.27;3.00;;;;;;;;;;4898740;29;20431;-75
2023/09/01 09:00:00;;;;;;;3.60;2.00;;;;;;;;;;4907761;29;20430;-74
2023/09/01 09:02:26;;;;;;;4.53;2.53;;;;;;;;;;4917422;29;20450;-74
2023/09/01 09:04:52;;;;;;;4.20;2.77;;;;;;;;;;4906667;29;20423;-75
2023/09/01 09:07:18;;;;;;;4.07;2.40;;;;;;;;;;4896780;29;20482;-73
2023/09/01 09:09:52;;;;;;;3.30;2.23;;;;;;;;;;4898103;29;20434;-72
2023/09/01 09:12:18;;;;;;;4.30;2.60;;;;;;;;;;4898377;29;21001;-74
2023/09/01 09:14:50;;;;;;;4.77;2.47;;;;;;;;;;4897926;29;20415;-75
2023/09/01 09:17:16;;;;;;;4.53;2.50;;;;;;;;;;4902706;29;20434;-74
2023/09/01 09:19:53;;;;;;;7.70;2.53;;;;;;;;;;4911029;29;20433;-73
2023/09/01 09:22:19;;;;;;;5.33;2.50;;;;;;;;;;4916748;29;20517;-76
2023/09/01 09:24:45;;;;;;;3.20;1.87;;;;;;;;;;4898678;29;20454;-75
2023/09/01 09:27:15;;;;;;;3.20;2.60;;;;;;;;;;4899113;29;20471;-70
2023/09/01 09:29:42;;;;;;;6.33;2.50;;;;;;;;;;4899502;29;20431;-70
2023/09/01 09:32:20;;;;;;;6.17;2.60;;;;;;;;;;4902667;29;20534;-70
2023/09/01 09:35:05;;;;;;;5.43;1.93;;;;;;;;;;4899928;29;20411;-70
2023/09/01 09:37:31;;;;;;;4.67;1.90;;;;;;;;;;4898553;29;20408;-70
2023/09/01 09:40:11;;;;;;;3.43;2.13;;;;;;;;;;4899594;29;20418;-71
2023/09/01 09:42:38;;;;;;;7.73;2.80;;;;;;;;;;4906341;29;20451;-71
2023/09/01 09:45:04;;;;;;;2.50;1.77;;;;;;;;;;4898189;29;20944;-69
2023/09/01 09:47:32;;;;;;;3.67;2.17;;;;;;;;;;4897870;29;20408;-70
2023/09/01 09:49:59;;;;;;;3.13;2.10;;;;;;;;;;4895981;29;20430;-70
2023/09/01 09:52:25;;;;;;;3.17;1.70;;;;;;;;;;4897552;29;20579;-70
2023/09/01 09:54:51;;;;;;;2.07;1.73;;;;;;;;;;4897750;29;20506;-70
2023/09/01 09:57:18;;;;;;;6.50;2.10;;;;;;;;;;4896643;29;20818;-69
2023/09/01 09:59:57;;;;;;;8.63;1.97;;;;;;;;;;4897570;29;20435;-69
2023/09/01 10:02:26;;;;;;;4.00;2.20;;;;;;;;;;4897325;29;20942;-70
2023/09/01 10:04:53;;;;;;;5.43;2.07;;;;;;;;;;4897152;29;20471;-70
2023/09/01 10:07:20;;;;;;;2.53;1.80;;;;;;;;;;4907504;29;20427;-70
2023/09/01 10:09:46;;;;;;;2.60;1.90;;;;;;;;;;4914406;29;20473;-70
2023/09/01 10:12:12;;;;;;;4.13;1.90;;;;;;;;;;4916041;29;20498;-70
2023/09/01 10:14:39;;;;;;;6.57;2.60;;;;;;;;;;4905697;29;20432;-70
2023/09/01 10:17:06;;;;;;;4.30;2.37;;;;;;;;;;4896890;29;20810;-71
2023/09/01 10:19:32;;;;;;;3.57;2.13;;;;;;;;;;4898878;29;20411;-71
2023/09/01 10:21:58;;;;;;;4.13;2.20;;;;;;;;;;4900163;29;20810;-71
2023/09/01 10:24:24;;;;;;;7.10;2.37;;;;;;;;;;4897528;29;20514;-71
2023/09/01 10:27:06;;;;;;;6.43;2.47;;;;;;;;;;4903871;29;20518;-71
2023/09/01 10:29:34;;;;;;;3.00;2.20;;;;;;;;;;4884824;29;21050;-70
2023/09/01 10:32:19;;;;;;;5.97;3.30;;;;;;;;;;4887749;29;20530;-71
2023/09/01 10:34:51;;;;;;;4.47;2.80;;;;;;;;;;4886887;29;20945;-70
2023/09/01 10:37:27;;;;;;;5.47;2.67;;;;;;;;;;4893783;29;20489;-70
2023/09/01 10:39:54;;;;;;;6.33;3.27;;;;;;;;;;4892248;29;20427;-70
2023/09/01 10:42:39;;;;;;;5.80;2.80;;;;;;;;;;4896684;29;20493;-70
2023/09/01 10:45:06;;;;;;;5.47;2.80;;;;;;;;;;4888635;29;20460;-70
2023/09/01 10:47:32;;;;;;;5.93;2.53;;;;;;;;;;4882160;29;20416;-70
2023/09/01 10:49:58;;;;;;;4.87;2.30;;;;;;;;;;4900439;29;20426;-70
2023/09/01 10:52:24;;;;;;;7.03;2.10;;;;;;;;;;4908033;29;20443;-70
2023/09/01 10:55:06;;;;;;;6.03;2.30;;;;;;;;;;4897954;29;20462;-70
2023/09/01 10:57:39;;;;;;;5.10;2.03;;;;;;;;;;4898723;29;20446;-73
2023/09/01 11:00:23;;;;;;;3.77;1.77;;;;;;;;;;4888961;29;20948;-71
2023/09/01 11:02:50;;;;;;;2.90;1.80;;;;;;;;;;4900673;29;20450;-74
2023/09/01 11:05:36;;;;;;;6.30;2.17;;;;;;;;;;4910848;29;20519;-73
2023/09/01 11:08:17;;;;;;;3.33;1.90;;;;;;;;;;4899919;29;20721;-69
2023/09/01 11:10:43;;;;;;;3.70;2.07;;;;;;;;;;4879878;29;20471;-71
2023/09/01 11:13:19;;;;;;;5.30;2.30;;;;;;;;;;4887213;29;20430;-70
2023/09/01 11:15:46;;;;;;;4.80;2.80;;;;;;;;;;4881545;29;20416;-70
2023/09/01 11:18:30;;;;;;;5.63;2.70;;;;;;;;;;4896855;29;20795;-70
2023/09/01 11:20:57;;;;;;;4.73;2.43;;;;;;;;;;4899871;29;20454;-70
2023/09/01 11:23:24;;;;;;;4.97;2.00;;;;;;;;;;4902224;29;20816;-70
2023/09/01 11:25:57;;;;;;;6.63;2.40;;;;;;;;;;4906438;29;20432;-71
2023/09/01 11:28:23;;;;;;;11.00;4.17;;;;;;;;;;4902723;29;20517;-70
2023/09/01 11:31:01;;;;;;;4.70;2.53;;;;;;;;;;4918560;29;20558;-71
2023/09/01 11:33:27;;;;;;;2.93;1.83;;;;;;;;;;4908790;29;20431;-70
2023/09/01 11:36:12;;;;;;;5.90;2.27;;;;;;;;;;4901362;29;20430;-69
2023/09/01 11:38:38;;;;;;;3.30;2.10;;;;;;;;;;4900697;29;20439;-70
2023/09/01 11:41:05;;;;;;;7.23;2.57;;;;;;;;;;4908352;29;20498;-71
2023/09/01 11:43:32;;;;;;;3.60;2.10;;;;;;;;;;4889866;29;20443;-70
2023/09/01 11:45:58;;;;;;;5.17;3.37;;;;;;;;;;4913104;29;20441;-71
2023/09/01 11:48:24;;;;;;;3.47;2.00;;;;;;;;;;4904023;29;21094;-70
2023/09/01 11:50:53;;;;;;;4.23;2.57;;;;;;;;;;4899218;29;20482;-69
2023/09/01 11:53:23;;;;;;;6.53;2.27;;;;;;;;;;4899278;29;20922;-69
2023/09/01 11:55:49;;;;;;;3.20;2.00;;;;;;;;;;4897287;29;20944;-69
2023/09/01 11:58:15;;;;;;;3.50;2.23;;;;;;;;;;4898674;29;20534;-70
2023/09/01 12:00:41;;;;;;;2.67;1.90;;;;;;;;;;4893609;29;20570;-70
2023/09/01 12:03:08;;;;;;;2.43;1.47;;;;;;;;;;4912201;29;20439;-70
2023/09/01 12:05:35;;;;;;;2.07;1.53;;;;;;;;;;4900763;29;20499;-69
2023/09/01 12:08:02;;;;;;;2.40;1.50;;;;;;;;;;4898907;29;20455;-69
2023/09/01 12:10:29;;;;;;;2.83;1.47;;;;;;;;;;4898636;29;20463;-71
2023/09/01 12:13:02;;;;;;;4.70;1.50;;;;;;;;;;4899022;29;20426;-70
2023/09/01 12:15:28;;;;;;;2.77;2.00;;;;;;;;;;4898890;29;20411;-69
2023/09/01 12:17:54;;;;;;;2.33;1.77;;;;;;;;;;4896689;29;20422;-69
2023/09/01 12:20:20;;;;;;;3.63;1.43;;;;;;;;;;4904809;23;21020;-69
2023/09/01 12:22:46;;;;;;;3.17;1.80;;;;;;;;;;4906303;29;20960;-67
2023/09/01 12:25:13;;;;;;;2.47;1.53;;;;;;;;;;4898489;29;20424;-69
2023/09/01 12:27:39;;;;;;;3.30;1.93;;;;;;;;;;4898629;29;20423;-69
2023/09/01 12:30:06;;;;;;;2.50;1.97;;;;;;;;;;4887277;29;20448;-70
2023/09/01 12:32:32;;;;;;;2.93;1.60;;;;;;;;;;4880163;29;20428;-70
2023/09/01 12:34:58;;;;;;;2.87;1.80;;;;;;;;;;4879834;29;20432;-70
2023/09/01 12:37:24;;;;;;;3.20;1.87;;;;;;;;;;4879683;29;20432;-69
2023/09/01 12:39:50;;;;;;;3.83;1.40;;;;;;;;;;4879109;29;20449;-69
2023/09/01 12:42:16;;;;;;;3.43;1.83;;;;;;;;;;4887315;29;20435;-70
2023/09/01 12:44:42;;;;;;;2.60;1.57;;;;;;;;;;4896813;29;20427;-70
2023/09/01 12:47:08;;;;;;;4.77;1.60;;;;;;;;;;4888394;29;20433;-71
2023/09/01 12:49:33;;;;;;;2.40;1.33;;;;;;;;;;4886819;29;20475;-70
2023/09/01 12:51:59;;;;;;;3.93;1.50;;;;;;;;;;4882280;29;20565;-70
2023/09/01 12:54:26;;;;;;;2.50;1.30;;;;;;;;;;4911361;29;20428;-71
2023/09/01 12:56:51;;;;;;;2.47;2.00;;;;;;;;;;4898097;29;20940;-71
2023/09/01 12:59:17;;;;;;;3.03;1.60;;;;;;;;;;4892742;29;20476;-71
2023/09/01 13:01:43;;;;;;;3.83;1.73;;;;;;;;;;4879437;29;20417;-70
2023/09/01 13:04:09;;;;;;;3.40;1.70;;;;;;;;;;4879438;29;20444;-69
2023/09/01 13:06:35;;;;;;;4.10;1.90;;;;;;;;;;4878881;29;20431;-70
2023/09/01 13:09:03;;;;;;;2.20;1.57;;;;;;;;;;4878956;29;20432;-70
2023/09/01 13:11:29;;;;;;;2.90;1.70;;;;;;;;;;4886812;29;20522;-70
2023/09/01 13:13:55;;;;;;;3.40;2.00;;;;;;;;;;4897403;29;20439;-70
2023/09/01 13:16:27;;;;;;;3.30;1.90;;;;;;;;;;4897766;29;20416;-69
2023/09/01 13:18:53;;;;;;;3.40;2.27;;;;;;;;;;4897681;29;20412;-70
2023/09/01 13:21:19;;;;;;;5.40;1.67;;;;;;;;;;4891228;29;20934;-69
2023/09/01 13:23:47;;;;;;;10.33;2.30;;;;;;;;;;4878966;29;20993;-70
2023/09/01 13:26:13;;;;;;;4.40;2.37;;;;;;;;;;4879061;29;20770;-69
2023/09/01 13:28:39;;;;;;;2.87;2.13;;;;;;;;;;4878903;29;20427;-70
2023/09/01 13:31:05;;;;;;;3.90;1.73;;;;;;;;;;4878832;29;20476;-70
2023/09/01 13:33:31;;;;;;;3.00;1.97;;;;;;;;;;4888468;29;20482;-70
2023/09/01 13:35:56;;;;;;;6.70;1.67;;;;;;;;;;4897418;29;20423;-70
2023/09/01 13:38:22;;;;;;;2.13;1.60;;;;;;;;;;4897407;29;20415;-70
2023/09/01 13:40:55;;;;;;;2.37;1.50;;;;;;;;;;4897373;29;20431;-68
2023/09/01 13:43:21;;;;;;;4.93;2.00;;;;;;;;;;4897576;29;20498;-70
2023/09/01 13:45:47;;;;;;;3.73;1.63;;;;;;;;;;4887168;29;20527;-70
2023/09/01 13:48:12;;;;;;;3.10;1.67;;;;;;;;;;4878504;29;20443;-69
2023/09/01 13:50:38;;;;;;;2.20;1.40;;;;;;;;;;4878512;29;20501;-70
2023/09/01 13:53:04;;;;;;;3.90;1.30;;;;;;;;;;4878670;29;20918;-69
2023/09/01 13:55:30;;;;;;;2.70;1.60;;;;;;;;;;4878585;29;20786;-69
2023/09/01 13:57:56;;;;;;;5.40;1.80;;;;;;;;;;4889546;29;20483;-69
2023/09/01 14:00:22;;;;;;;2.53;1.30;;;;;;;;;;4897873;29;20442;-69
2023/09/01 14:02:48;;;;;;;6.70;1.90;;;;;;;;;;4899516;29;20434;-69
2023/09/01 14:05:14;;;;;;;2.33;1.50;;;;;;;;;;4898786;29;20428;-69
2023/09/01 14:07:40;;;;;;;3.00;1.70;;;;;;;;;;4912023;29;20420;-70
2023/09/01 14:10:06;;;;;;;3.27;1.73;;;;;;;;;;4885076;29;20456;-69
2023/09/01 14:12:32;;;;;;;3.27;1.93;;;;;;;;;;4882644;29;20432;-70
2023/09/01 14:14:59;;;;;;;3.40;1.60;;;;;;;;;;4883785;29;20417;-69
2023/09/01 14:17:25;;;;;;;5.23;1.90;;;;;;;;;;4878831;29;20423;-69
2023/09/01 14:19:51;;;;;;;5.10;2.10;;;;;;;;;;4877813;29;20873;-69
2023/09/01 14:22:17;;;;;;;2.30;1.50;;;;;;;;;;4891501;29;20439;-69
2023/09/01 14:24:43;;;;;;;3.50;1.80;;;;;;;;;;4898084;29;20568;-69
2023/09/01 14:27:09;;;;;;;4.63;2.10;;;;;;;;;;4894696;29;20439;-70
2023/09/01 14:29:36;;;;;;;2.93;1.70;;;;;;;;;;4895294;29;20458;-69
2023/09/01 14:32:03;;;;;;;2.10;1.43;;;;;;;;;;4896848;29;20981;-70
2023/09/01 14:34:29;;;;;;;2.63;1.97;;;;;;;;;;4896972;29;20411;-69
2023/09/01 14:36:56;;;;;;;2.57;1.53;;;;;;;;;;4897017;29;20419;-69
2023/09/01 14:39:22;;;;;;;2.17;1.33;;;;;;;;;;4885097;29;20456;-68
2023/09/01 14:41:48;;;;;;;4.47;1.80;;;;;;;;;;4878329;29;20424;-68
2023/09/01 14:44:14;;;;;;;3.40;2.40;;;;;;;;;;4878282;29;20421;-69
2023/09/01 14:46:40;;;;;;;3.57;2.00;;;;;;;;;;4878154;29;20775;-70
2023/09/01 14:49:07;;;;;;;4.40;1.73;;;;;;;;;;4878083;29;20443;-70
2023/09/01 14:51:32;;;;;;;2.53;1.33;;;;;;;;;;4877878;29;20507;-71
2023/09/01 14:53:58;;;;;;;3.07;1.87;;;;;;;;;;4888760;29;20893;-71
2023/09/01 14:56:26;;;;;;;2.40;1.37;;;;;;;;;;4896713;29;20932;-69
2023/09/01 14:58:52;;;;;;;3.90;1.60;;;;;;;;;;4880991;29;20922;-70
2023/09/01 15:01:18;;;;;;;5.27;1.60;;;;;;;;;;4878892;29;20416;-70
2023/09/01 15:03:44;;;;;;;2.30;1.37;;;;;;;;;;4878373;29;20443;-70
2023/09/01 15:06:10;;;;;;;2.53;1.53;;;;;;;;;;4908953;29;20456;-70
2023/09/01 15:08:36;;;;;;;3.63;2.07;;;;;;;;;;4878760;29;20982;-71
2023/09/01 15:11:02;;;;;;;2.93;1.57;;;;;;;;;;4878553;29;20478;-70
2023/09/01 15:13:29;;;;;;;2.57;1.40;;;;;;;;;;4885707;29;20467;-70
2023/09/01 15:15:54;;;;;;;2.40;1.80;;;;;;;;;;4889264;29;20932;-72
2023/09/01 15:18:20;;;;;;;2.63;1.40;;;;;;;;;;4897375;29;20490;-71
2023/09/01 15:20:47;;;;;;;2.20;1.50;;;;;;;;;;4911196;29;20501;-71
2023/09/01 15:23:13;;;;;;;4.23;1.50;;;;;;;;;;4897373;29;20423;-71
2023/09/01 15:25:39;;;;;;;3.73;1.80;;;;;;;;;;4880942;29;20436;-69
2023/09/01 15:28:06;;;;;;;4.77;1.77;;;;;;;;;;4878397;29;20440;-70
2023/09/01 15:30:32;;;;;;;7.03;2.27;;;;;;;;;;4880467;29;20564;-70
2023/09/01 15:32:58;;;;;;;3.80;1.80;;;;;;;;;;4881558;29;20444;-70
2023/09/01 15:35:24;;;;;;;3.67;1.67;;;;;;;;;;4881284;29;20420;-70
2023/09/01 15:37:50;;;;;;;2.83;1.70;;;;;;;;;;4889518;29;20440;-70
2023/09/01 15:40:16;;;;;;;3.20;2.00;;;;;;;;;;4894193;29;20442;-71
2023/09/01 15:42:42;;;;;;;3.17;1.70;;;;;;;;;;4881434;29;20420;-70
2023/09/01 15:45:08;;;;;;;4.57;1.87;;;;;;;;;;4881332;29;20417;-70
2023/09/01 15:47:35;;;;;;;3.53;1.83;;;;;;;;;;4897150;29;20773;-68
2023/09/01 15:50:00;;;;;;;3.77;2.17;;;;;;;;;;4888240;29;20448;-70
2023/09/01 15:52:26;;;;;;;4.10;2.07;;;;;;;;;;4881098;29;20971;-69
2023/09/01 15:54:52;;;;;;;7.33;2.10;;;;;;;;;;4880471;29;20432;-70
2023/09/01 15:57:19;;;;;;;5.07;1.60;;;;;;;;;;4886351;29;20487;-71
2023/09/01 15:59:46;;;;;;;3.20;1.73;;;;;;;;;;4891709;29;20463;-70
2023/09/01 16:02:12;;;;;;;4.83;2.00;;;;;;;;;;4900287;29;20446;-68
2023/09/01 16:04:38;;;;;;;4.97;1.90;;;;;;;;;;4900204;29;20419;-68
2023/09/01 16:07:04;;;;;;;2.60;1.43;;;;;;;;;;4891774;29;20481;-70
2023/09/01 16:09:30;;;;;;;2.67;1.67;;;;;;;;;;4880700;29;20464;-69
2023/09/01 16:11:56;;;;;;;4.63;2.20;;;;;;;;;;4880766;29;20502;-69
2023/09/01 16:14:22;;;;;;;7.33;2.20;;;;;;;;;;4880914;29;20890;-69
2023/09/01 16:16:53;;;;;;;4.73;2.00;;;;;;;;;;4880984;29;20479;-70
2023/09/01 16:19:20;;;;;;;7.97;2.47;;;;;;;;;;4880455;29;20452;-71
2023/09/01 16:21:46;;;;;;;7.20;1.90;;;;;;;;;;4880627;29;20420;-70
2023/09/01 16:24:12;;;;;;;2.30;1.50;;;;;;;;;;4888523;29;20924;-69
2023/09/01 16:26:38;;;;;;;4.57;2.30;;;;;;;;;;4898671;29;20454;-69
2023/09/01 16:29:04;;;;;;;6.83;2.30;;;;;;;;;;4899160;29;20431;-69
2023/09/01 16:31:30;;;;;;;7.10;1.67;;;;;;;;;;4883472;29;20992;-68
2023/09/01 16:33:57;;;;;;;4.40;2.20;;;;;;;;;;4880211;29;20964;-70
2023/09/01 16:36:23;;;;;;;2.30;1.53;;;;;;;;;;4880589;29;20477;-69
2023/09/01 16:38:49;;;;;;;4.33;1.90;;;;;;;;;;4880284;29;20504;-70
2023/09/01 16:41:15;;;;;;;4.27;2.07;;;;;;;;;;4909457;29;20796;-70
2023/09/01 16:43:43;;;;;;;5.40;2.40;;;;;;;;;;4879887;29;20929;-70
2023/09/01 16:46:09;;;;;;;3.40;1.90;;;;;;;;;;4909218;29;20441;-70
2023/09/01 16:48:35;;;;;;;4.83;1.90;;;;;;;;;;4887225;29;20488;-69
2023/09/01 16:51:02;;;;;;;4.20;2.03;;;;;;;;;;4879646;29;20516;-69
2023/09/01 16:53:28;;;;;;;5.37;1.70;;;;;;;;;;4879566;29;20503;-70
2023/09/01 16:55:54;;;;;;;3.53;2.30;;;;;;;;;;4879284;29;20572;-71
2023/09/01 16:58:21;;;;;;;5.93;2.10;;;;;;;;;;4879351;29;20417;-70
2023/09/01 17:00:47;;;;;;;2.60;1.77;;;;;;;;;;4879507;29;20564;-74
2023/09/01 17:03:13;;;;;;;11.00;2.47;;;;;;;;;;4879662;29;20452;-75
2023/09/01 17:05:39;;;;;;;5.63;3.07;;;;;;;;;;4879555;29;20868;-74
2023/09/01 17:08:05;;;;;;;3.57;2.10;;;;;;;;;;4879093;29;20441;-75
2023/09/01 17:10:31;;;;;;;5.37;2.30;;;;;;;;;;4886950;29;20472;-75
2023/09/01 17:12:57;;;;;;;2.90;2.33;;;;;;;;;;4896758;29;20422;-75
2023/09/01 17:15:23;;;;;;;4.03;1.90;;;;;;;;;;4894114;29;20416;-75
2023/09/01 17:17:49;;;;;;;4.20;2.17;;;;;;;;;;4877490;29;20412;-74
2023/09/01 17:20:16;;;;;;;2.80;1.70;;;;;;;;;;4882267;29;20555;-74
2023/09/01 17:22:42;;;;;;;5.70;2.80;;;;;;;;;;4897413;29;20699;-74
2023/09/01 17:25:09;;;;;;;8.53;3.10;;;;;;;;;;4898178;29;21076;-74
2023/09/01 17:27:35;;;;;;;5.63;4.17;;;;;;;;;;4897639;29;20916;-73
2023/09/01 17:30:01;;;;;;;5.60;3.20;;;;;;;;;;4896612;29;20454;-73
2023/09/01 17:32:27;;;;;;;8.50;2.97;;;;;;;;;;4877294;29;20432;-74
2023/09/01 17:34:53;;;;;;;5.53;2.50;;;;;;;;;;4878643;29;20419;-74
2023/09/01 17:37:19;;;;;;;4.87;2.60;;;;;;;;;;4878526;29;20420;-74
2023/09/01 17:39:45;;;;;;;3.70;2.30;;;;;;;;;;4878555;29;20465;-74
2023/09/01 17:42:11;;;;;;;12.90;2.73;;;;;;;;;;4881761;29;20942;-75
2023/09/01 17:44:37;;;;;;;4.23;2.50;;;;;;;;;;4897445;29;20427;-74
2023/09/01 17:47:03;;;;;;;8.03;3.20;;;;;;;;;;4897367;29;20419;-75
2023/09/01 17:49:29;;;;;;;13.07;3.73;;;;;;;;;;4897072;29;20454;-75
2023/09/01 17:51:55;;;;;;;11.33;4.00;;;;;;;;;;4896498;29;21039;-76
2023/09/01 17:54:21;;;;;;;11.00;4.37;;;;;;;;;;4896063;29;20415;-75
2023/09/01 17:56:47;;;;;;;8.23;4.30;;;;;;;;;;4878459;29;20768;-75
2023/09/01 17:59:17;;;;;;;7.20;3.80;;;;;;;;;;4879398;29;20591;-75
2023/09/01 18:01:43;;;;;;;8.60;4.97;;;;;;;;;;4879162;29;20420;-75
2023/09/01 18:04:10;;;;;;;13.83;5.40;;;;;;;;;;4879297;29;20426;-74
2023/09/01 18:06:37;;;;;;;11.93;5.70;;;;;;;;;;4881964;29;20499;-75
2023/09/01 18:09:03;;;;;;;8.67;3.30;;;;;;;;;;4890466;29;20499;-76
2023/09/01 18:11:31;;;;;;;6.53;4.53;;;;;;;;;;4890356;29;20471;-78
2023/09/01 18:13:59;;;;;;;7.77;4.63;;;;;;;;;;4878896;29;20460;-77
2023/09/01 18:16:25;;;;;;;8.70;4.30;;;;;;;;;;4878392;29;20430;-76
2023/09/01 18:18:50;;;;;;;8.27;4.10;;;;;;;;;;4877860;29;20951;-76
2023/09/01 18:21:16;;;;;;;5.30;3.60;;;;;;;;;;4950165;23;20504;-73
2023/09/01 18:23:43;;;;;;;6.27;3.73;;;;;;;;;;4934892;29;20902;-74
2023/09/01 18:26:10;;;;;;;7.30;3.30;;;;;;;;;;4934417;29;20406;-74
2023/09/01 18:28:39;;;;;;;6.63;3.07;;;;;;;;;;4936234;29;20457;-74
2023/09/01 18:31:05;;;;;;;9.73;3.40;;;;;;;;;;4938696;28;21007;-73
2023/09/01 18:33:31;;;;;;;7.50;3.73;;;;;;;;;;4916230;29;20506;-74
2023/09/01 18:35:58;;;;;;;5.73;3.00;;;;;;;;;;4915905;29;20422;-74
2023/09/01 18:38:24;;;;;;;7.20;2.83;;;;;;;;;;4915853;29;20789;-74
2023/09/01 18:40:50;;;;;;;7.20;3.30;;;;;;;;;;4915586;29;20968;-73
2023/09/01 18:43:16;;;;;;;5.10;2.97;;;;;;;;;;4916202;29;20993;-74
2023/09/01 18:45:43;;;;;;;5.43;2.67;;;;;;;;;;4916582;29;20446;-73
2023/09/01 18:48:11;;;;;;;3.87;2.20;;;;;;;;;;4915421;29;20499;-72
2023/09/01 18:50:41;;;;;;;10.77;5.27;;;;;;;;;;4915380;29;20470;-72
2023/09/01 18:53:08;;;;;;;14.33;7.77;;;;;;;;;;4919690;29;20425;-73
2023/09/01 18:55:36;;;;;;;5.50;3.13;;;;;;;;;;4926800;29;20926;-73
2023/09/01 18:58:03;;;;;;;7.40;3.90;;;;;;;;;;4933559;29;20418;-73
2023/09/01 19:00:29;;;;;;;4.73;2.47;;;;;;;;;;4934238;29;20796;-72
2023/09/01 19:02:55;;;;;;;8.23;3.97;;;;;;;;;;4920048;29;20438;-73
2023/09/01 19:05:21;;;;;;;8.70;4.47;;;;;;;;;;4917639;29;20438;-72
2023/09/01 19:07:47;;;;;;;8.73;3.73;;;;;;;;;;4919157;29;20429;-73
2023/09/01 19:10:18;;;;;;;8.63;3.60;;;;;;;;;;4919185;29;20444;-73
2023/09/01 19:12:47;;;;;;;8.70;4.40;;;;;;;;;;4921431;29;20529;-73
2023/09/01 19:15:13;;;;;;;7.93;3.97;;;;;;;;;;4930115;29;20422;-73
2023/09/01 19:17:39;;;;;;;8.17;3.87;;;;;;;;;;4924419;29;20437;-73
2023/09/01 19:20:31;;;;;;;8.03;3.73;;;;;;;;;;4918891;29;20454;-73
2023/09/01 19:23:11;;;;;;;10.87;4.60;;;;;;;;;;4916128;29;20426;-74
2023/09/01 19:25:37;;;;;;;13.33;4.33;;;;;;;;;;4919433;29;20458;-74
2023/09/01 19:28:03;;;;;;;9.77;3.90;;;;;;;;;;4919308;29;20441;-75
2023/09/01 19:30:30;;;;;;;7.27;4.20;;;;;;;;;;4918907;29;20462;-74
2023/09/01 19:32:55;;;;;;;10.23;3.80;;;;;;;;;;4919308;29;20418;-74
2023/09/01 19:35:22;;;;;;;9.77;4.27;;;;;;;;;;4930471;29;20437;-72
2023/09/01 19:37:52;;;;;;;5.93;3.40;;;;;;;;;;4919830;29;20454;-72
2023/09/01 19:40:18;;;;;;;10.13;4.70;;;;;;;;;;4917616;29;20474;-72
2023/09/01 19:42:44;;;;;;;5.70;3.80;;;;;;;;;;4919066;29;20996;-73
2023/09/01 19:45:20;;;;;;;9.30;4.00;;;;;;;;;;4918628;29;20438;-74
2023/09/01 19:47:46;;;;;;;10.70;5.33;;;;;;;;;;4919262;29;20407;-73
2023/09/01 19:50:13;;;;;;;7.17;4.50;;;;;;;;;;4918907;29;20541;-73
2023/09/01 19:52:39;;;;;;;11.17;5.40;;;;;;;;;;4918552;29;20423;-74
2023/09/01 19:55:10;;;;;;;7.97;4.50;;;;;;;;;;4923392;29;20512;-73
2023/09/01 19:57:38;;;;;;;14.50;5.37;;;;;;;;;;4929781;29;20425;-72
2023/09/01 20:00:11;;;;;;;11.83;5.33;;;;;;;;;;4937218;29;21221;-72
2023/09/01 20:02:37;;;;;;;15.43;5.50;;;;;;;;;;4931655;29;20449;-71
2023/09/01 20:05:06;;;;;;;10.70;6.27;;;;;;;;;;4918472;29;20426;-72
2023/09/01 20:07:37;;;;;;;11.80;5.70;;;;;;;;;;4918336;29;20885;-73
2023/09/01 20:10:08;;;;;;;9.30;5.30;;;;;;;;;;4918183;29;20929;-73
2023/09/01 20:12:34;;;;;;;9.90;5.50;;;;;;;;;;4918418;29;20426;-71
2023/09/01 20:15:00;;;;;;;11.63;5.57;;;;;;;;;;4918152;29;20442;-72
2023/09/01 20:17:26;;;;;;;13.50;6.47;;;;;;;;;;4925090;29;20461;-73
2023/09/01 20:19:53;;;;;;;15.57;7.00;;;;;;;;;;4917900;29;20458;-73
2023/09/01 20:22:21;;;;;;;10.87;6.60;;;;;;;;;;4917337;29;20454;-73
2023/09/01 20:24:47;;;;;;;15.63;8.10;;;;;;;;;;4918300;29;20437;-73
2023/09/01 20:27:13;;;;;;;24.33;10.33;;;;;;;;;;4918348;29;20434;-73
2023/09/01 20:29:39;;;;;;;14.03;8.10;;;;;;;;;;4917778;29;20521;-73
2023/09/01 20:32:05;;;;;;;15.90;7.13;;;;;;;;;;4918063;29;20466;-73
2023/09/01 20:34:31;;;;;;;12.13;6.27;;;;;;;;;;4917971;29;20427;-72
2023/09/01 20:36:57;;;;;;;11.80;6.00;;;;;;;;;;4916541;29;20439;-72
2023/09/01 20:39:23;;;;;;;12.50;6.17;;;;;;;;;;4916148;29;20465;-72
2023/09/01 20:41:49;;;;;;;10.60;6.03;;;;;;;;;;4917160;29;20418;-72